Weather observations for the past three days for
Gatesville, City-County Airport
Imperial (Metric)
Date Time (cdt) Wind (mph) Vis. (mi.) Weather Sky Cond. Temperature (ºF) Relative Humidity Wind Chill (°F) Heat Index (°F) Pressure Precipitation (in)
Air Dwpt 6 hour altimeter (in) sea level (mb) 1 hr 3 hr 6 hr
Max. Min.
01 05:35 Calm 10.00 Fair CLR 75.2 71.6 89% 75 30.02 0.0
01 05:15 Calm 10.00 Fair CLR 75.2 71.6 89% 75 30.02 0.0
01 04:55 Calm 10.00 Fair CLR 77 71.6 83% 78 30.02 0.0
01 04:35 Calm 10.00 Fair CLR 77 71.6 83% 78 30.02 0.0
01 04:15 Calm 10.00 Fair CLR 77 71.6 83% 78 30.02 0.0
01 03:55 Calm 10.00 Fair CLR 77 71.6 83% 78 30.02 0.0
01 03:35 Calm 10.00 Fair CLR 78.8 71.6 79% 82 30.01 0.0
01 03:15 Calm 10.00 Fair CLR 78.8 71.6 79% 82 30.01 0.0
01 02:55 Calm 10.00 Fair CLR 78.8 71.6 79% 82 30.01 0.0
01 02:35 SE 5 10.00 Fair CLR 78.8 71.6 79% 82 30.01 0.0
01 02:15 Calm 10.00 Fair CLR 80.6 71.6 74% 85 30.01 0.0
01 01:55 Calm 10.00 Fair CLR 80.6 69.8 70% 84 30 0.0
01 01:35 E 3 10.00 Fair CLR 82.4 69.8 66% 86 30 0.0
01 01:15 Vrbl 5 10.00 Fair CLR 82.4 69.8 66% 86 30 0.0
01 00:55 S 5 10.00 Fair CLR 80.6 66.2 62% 83 29.99 0.0
01 00:35 SE 6 10.00 Fair CLR 82.4 66.2 58% 85 30 0.0
01 00:15 SE 5 10.00 Fair CLR 80.6 64.4 58% 82 29.99 0.0
31 23:55 SE 5 10.00 Fair CLR 82.4 62.6 51% 83 29.99 0.0
31 23:35 SE 5 10.00 Fair CLR 82.4 62.6 51% 83 29.98 0.0
31 23:15 Calm 10.00 Fair CLR 82.4 62.6 51% 83 29.98 0.0
31 22:55 Calm 10.00 Fair CLR 82.4 62.6 51% 83 29.98 0.0
31 22:35 SE 3 10.00 Fair CLR 82.4 62.6 51% 83 29.98 0.0
31 22:15 Calm 10.00 Fair CLR 84.2 62.6 48% 85 29.97 0.0
31 21:55 SE 3 10.00 Fair CLR 84.2 62.6 48% 85 29.96 0.0
31 21:35 SE 3 10.00 Fair CLR 86 62.6 46% 87 29.96 0.0
31 21:15 Calm 10.00 Fair CLR 87.8 62.6 43% 88 29.96 0.0
31 20:55 Calm 10.00 Fair CLR 87.8 62.6 43% 88 29.95 0.0
31 20:35 Calm 10.00 Fair CLR 89.6 60.8 38% 90 29.94 0.0
31 20:15 SE 3 10.00 Fair CLR 91.4 60.8 36% 91 29.94 0.0
31 19:55 E 3 10.00 Fair CLR 93.2 60.8 34% 93 29.94 0.0
31 19:35 Vrbl 6 10.00 Fair CLR 95 60.8 32% 95 29.93 0.0
31 19:15 Vrbl 5 10.00 Fair CLR 95 59 30% 94 29.93 0.0
31 18:35 E 8 10.00 A Few Clouds FEW085 96.8 60.8 30% 97 29.93 0.0
31 18:15 E 8 10.00 A Few Clouds FEW090 98.6 60.8 29% 99 29.93 0.0
31 17:55 SE 7 10.00 Fair CLR 98.6 60.8 29% 99 29.93 0.0
31 17:35 SE 8 10.00 Fair CLR 98.6 60.8 29% 99 29.94 0.0
31 17:15 SE 8 10.00 Fair CLR 96.8 60.8 30% 97 29.94 0.0
31 16:55 Vrbl 7 G 18 10.00 A Few Clouds FEW085 98.6 60.8 29% 99 29.94 0.0
31 16:35 SE 7 10.00 A Few Clouds FEW085 100.4 60.8 27% 101 29.95 0.0
31 16:15 SE 9 G 17 10.00 A Few Clouds FEW090 100.4 62.6 29% 102 29.95 0.0
31 15:55 Vrbl 7 G 16 10.00 A Few Clouds FEW090 98.6 60.8 29% 99 29.96 0.0
31 15:35 E 8 10.00 A Few Clouds FEW090 96.8 60.8 30% 97 29.98 0.0
31 15:15 Vrbl 7 G 15 10.00 A Few Clouds FEW075 96.8 60.8 30% 97 29.98 0.0
31 14:55 Vrbl 7 G 14 10.00 Partly Cloudy FEW075 SCT095 96.8 64.4 34% 99 29.99 0.0
31 14:35 SE 8 10.00 A Few Clouds FEW095 96.8 66.2 37% 100 30 0.0
31 14:15 S 10 G 17 10.00 A Few Clouds FEW070 FEW080 98.6 64.4 33% 101 30 0.0
31 13:55 Vrbl 5 G 16 10.00 Fair CLR 96.8 64.4 34% 99 30.01 0.0
31 13:35 Vrbl 7 10.00 Fair CLR 96.8 64.4 34% 99 30.01 0.0
31 13:15 E 9 G 17 10.00 A Few Clouds FEW065 95 66.2 39% 98 30.02 0.0
31 12:55 SE 12 G 21 10.00 Fair CLR 95 68 41% 100 30.03 0.0
31 12:35 SE 9 10.00 Fair CLR 95 66.2 39% 98 30.04 0.0
31 12:15 SE 10 G 17 10.00 Fair CLR 95 66.2 39% 98 30.05 0.0
31 11:55 SE 8 G 16 10.00 Fair CLR 93.2 68 44% 98 30.05 0.0
31 11:35 S 6 G 13 10.00 Fair CLR 91.4 68 46% 96 30.05 0.0
31 11:15 S 10 10.00 Fair CLR 89.6 69.8 52% 95 30.05 0.0
31 10:55 Vrbl 5 G 14 10.00 Fair CLR 87.8 73.4 62% 96 30.06 0.0
31 10:35 SW 8 10.00 Fair CLR 87.8 73.4 62% 96 30.05 0.0
31 10:15 SW 6 G 13 10.00 Fair CLR 86 75.2 70% 95 30.05 0.0
31 09:55 S 9 10.00 Fair CLR 84.2 75.2 74% 92 30.05 0.0
31 09:35 SW 8 10.00 Fair CLR 84.2 75.2 74% 92 30.04 0.0
31 09:15 SW 9 10.00 Fair CLR 82.4 75.2 79% 89 30.04 0.0
31 08:55 SW 7 10.00 Fair CLR 80.6 77 89% 87 30.04 0.0
31 08:35 Vrbl 3 10.00 Fair CLR 78.8 77 94% 83 30.04 0.0
31 08:15 S 3 10.00 Fair CLR 77 75.2 94% 78 30.03 0.0
31 07:55 S 5 10.00 Fair CLR 77 75.2 94% 78 30.03 0.0
31 07:35 SE 5 10.00 Fair CLR 75.2 75.2 100% 73 30.02 0.0
31 07:15 S 5 10.00 Fair CLR 75.2 73.4 94% 74 30.01 0.0
31 06:55 SE 5 10.00 Fair CLR 77 73.4 89% 78 30.01 0.0
31 06:35 S 5 10.00 Fair CLR 77 73.4 89% 78 30 0.0
31 06:15 SE 5 10.00 Fair CLR 77 73.4 89% 78 30 0.0
31 05:55 Calm 10.00 Fair CLR 77 73.4 89% 78 30 0.0
31 05:35 Calm 10.00 Fair CLR 78.8 73.4 84% 82 30 0.0
31 05:15 Calm 10.00 Fair CLR 78.8 73.4 84% 82 30 0.0
31 04:55 S 3 10.00 Fair CLR 78.8 73.4 84% 82 30 0.0
31 04:35 Vrbl 3 10.00 Fair CLR 78.8 71.6 79% 82 29.99 0.0
31 04:15 Calm 10.00 Fair CLR 78.8 71.6 79% 82 29.99 0.0
31 03:55 Calm 10.00 Fair CLR 78.8 71.6 79% 82 29.99 0.0
31 03:35 Calm 10.00 Fair CLR 78.8 71.6 79% 82 29.98 0.0
31 03:15 Calm 10.00 Fair CLR 78.8 71.6 79% 82 29.98 0.0
31 02:55 Calm 10.00 Fair CLR 80.6 71.6 74% 85 29.99 0.0
31 02:35 Vrbl 3 10.00 Fair CLR 80.6 71.6 74% 85 29.99 0.0
31 02:15 Calm 10.00 Fair CLR 80.6 71.6 74% 85 29.99 0.0
31 01:55 Calm 10.00 Fair CLR 80.6 71.6 74% 85 29.99 0.0
31 01:35 Calm 10.00 Fair CLR 82.4 71.6 70% 87 29.99 0.0
31 01:15 SE 5 10.00 Fair CLR 82.4 71.6 70% 87 29.99 0.0
31 00:55 S 5 10.00 Fair CLR 84.2 71.6 66% 90 29.99 0.0
31 00:35 SE 7 10.00 Fair CLR 84.2 69.8 62% 88 29.99 0.0
31 00:15 S 7 10.00 Fair CLR 84.2 69.8 62% 88 29.98 0.0
30 23:55 S 6 10.00 Fair CLR 84.2 69.8 62% 88 29.98 0.0
30 23:35 S 6 10.00 Fair CLR 86 68 55% 89 29.98 0.0
30 23:15 SE 6 10.00 Fair CLR 84.2 66.2 55% 87 29.98 0.0
30 22:55 Calm 10.00 Fair CLR 82.4 64.4 55% 84 29.97 0.0
30 22:35 Calm 10.00 Fair CLR 84.2 64.4 51% 86 29.96 0.0
30 22:15 Calm 10.00 Fair CLR 84.2 64.4 51% 86 29.96 0.0
30 21:55 Calm 10.00 Fair CLR 84.2 64.4 51% 86 29.95 0.0
30 21:35 Calm 10.00 Fair CLR 86 64.4 49% 87 29.95 0.0
30 21:15 SE 3 10.00 Fair CLR 86 64.4 49% 87 29.94 0.0
30 20:55 SE 3 10.00 Fair CLR 87.8 64.4 46% 89 29.93 0.0
30 20:35 Calm 10.00 Fair CLR 89.6 64.4 43% 91 29.93 0.0
30 20:15 Calm 10.00 Fair CLR 91.4 64.4 41% 93 29.93 0.0
30 19:55 Vrbl 5 10.00 Fair CLR 93.2 62.6 36% 94 29.92 0.0
30 19:35 SE 7 10.00 Fair CLR 95 62.6 34% 96 29.92 0.0
30 19:15 SE 10 10.00 Fair CLR 95 62.6 34% 96 29.92 0.0
30 18:55 SE 5 G 15 10.00 A Few Clouds FEW080 96.8 62.6 32% 98 29.92 0.0
30 18:35 SE 8 G 14 10.00 Fair CLR 96.8 62.6 32% 98 29.92 0.0
30 18:15 SE 9 G 15 10.00 Fair CLR 98.6 62.6 31% 100 29.92 0.0
30 17:55 SE 8 10.00 Fair CLR 98.6 62.6 31% 100 29.92 0.0
30 17:35 SE 8 G 18 9.00 A Few Clouds FEW080 98.6 62.6 31% 100 29.92 0.0
30 17:15 SE 13 G 23 10.00 Partly Cloudy SCT085 100.4 62.6 29% 102 29.92 0.0
30 16:55 S 9 G 15 10.00 A Few Clouds FEW085 98.6 60.8 29% 99 29.92 0.0
30 16:35 Vrbl 6 G 12 10.00 A Few Clouds FEW080 98.6 60.8 29% 99 29.93 0.0
30 16:15 SE 13 G 18 10.00 A Few Clouds FEW080 100.4 62.6 29% 102 29.93 0.0
30 15:55 Vrbl 7 G 21 10.00 A Few Clouds FEW080 98.6 62.6 31% 100 29.94 0.0
30 15:35 SE 10 G 20 10.00 Mostly Cloudy BKN080 BKN090 100.4 62.6 29% 102 29.95 0.0
30 15:15 E 9 10.00 Partly Cloudy SCT075 SCT090 98.6 62.6 31% 100 29.96 0.0
30 14:55 SE 9 10.00 A Few Clouds FEW080 98.6 62.6 31% 100 29.97 0.0
30 14:35 SE 8 G 15 10.00 Fair CLR 98.6 62.6 31% 100 29.97 0.0
30 14:15 Vrbl 6 G 16 10.00 Fair CLR 96.8 62.6 32% 98 29.98 0.0
30 13:55 Vrbl 3 G 16 10.00 Fair CLR 96.8 60.8 30% 97 29.99 0.0
30 13:35 Vrbl 7 G 16 10.00 Fair CLR 96.8 64.4 34% 99 30 0.0
30 13:15 SE 9 10.00 Fair CLR 96.8 64.4 34% 99 30.01 0.0
30 12:55 S 8 10.00 Fair CLR 95 64.4 36% 97 30.02 0.0
30 12:35 S 8 G 14 10.00 Fair CLR 95 64.4 36% 97 30.03 0.0
30 12:15 Vrbl 7 G 14 10.00 Fair CLR 93.2 68 44% 98 30.04 0.0
30 11:55 S 6 G 13 10.00 Fair CLR 93.2 66.2 41% 96 30.05 0.0
30 11:35 S 7 G 15 10.00 Fair CLR 91.4 66.2 44% 94 30.05 0.0
30 11:15 S 8 10.00 Fair CLR 91.4 68 46% 96 30.06 0.0
30 10:55 S 10 10.00 Fair CLR 89.6 68 49% 93 30.06 0.0
30 10:35 SW 7 10.00 Fair CLR 87.8 69.8 55% 93 30.06 0.0
30 10:15 SW 7 10.00 Fair CLR 86 71.6 62% 92 30.06 0.0
30 09:55 SW 8 10.00 Fair CLR 86 71.6 62% 92 30.05 0.0
30 09:35 S 9 10.00 Fair CLR 84.2 71.6 66% 90 30.05 0.0
30 09:15 SW 9 10.00 Fair CLR 84.2 71.6 66% 90 30.05 0.0
30 08:55 S 7 10.00 Fair CLR 82.4 73.4 74% 88 30.04 0.0
30 08:35 Calm 10.00 Fair CLR 78.8 73.4 84% 82 30.04 0.0
30 08:15 S 5 10.00 Fair CLR 77 73.4 89% 78 30.04 0.0
30 07:55 Calm 10.00 Fair CLR 77 73.4 89% 78 30.03 0.0
30 07:35 Calm 10.00 Fair CLR 75.2 73.4 94% 74 30.03 0.0
30 07:15 Calm 10.00 Fair CLR 75.2 71.6 89% 75 30.02 0.0
30 06:55 SE 5 10.00 Fair CLR 75.2 71.6 89% 75 30.01 0.0
30 06:35 SE 5 10.00 Fair CLR 75.2 73.4 94% 74 30.01 0.0
30 06:15 SE 3 10.00 Fair CLR 77 73.4 89% 78 30 0.0
30 05:55 SE 5 10.00 Fair CLR 78.8 73.4 84% 82 30.01 0.0
30 05:35 S 5 10.00 Fair CLR 78.8 73.4 84% 82 30 0.0
30 05:15 Calm 10.00 Fair CLR 78.8 73.4 84% 82 30 0.0
30 04:55 S 5 10.00 Fair CLR 80.6 73.4 79% 85 30 0.0
30 04:35 Calm 10.00 Fair CLR 78.8 73.4 84% 82 30 0.0
30 04:15 Calm 10.00 Fair CLR 78.8 73.4 84% 82 30 0.0
30 03:55 Calm 10.00 Fair CLR 78.8 73.4 84% 82 30 0.0
30 03:35 SE 5 10.00 Fair CLR 78.8 73.4 84% 82 30 0.0
30 03:15 SE 5 10.00 Fair CLR 78.8 71.6 79% 82 30 0.0
30 02:55 Vrbl 3 10.00 Fair CLR 82.4 71.6 70% 87 30 0.0
30 02:35 S 8 10.00 Fair CLR 82.4 71.6 70% 87 30 0.0
30 02:15 S 7 10.00 Fair CLR 82.4 71.6 70% 87 30 0.0
30 01:55 SE 3 9.00 Fair CLR 82.4 71.6 70% 87 30 0.0
30 01:35 SE 5 10.00 Fair CLR 82.4 71.6 70% 87 30 0.0
30 01:15 S 6 10.00 Fair CLR 82.4 69.8 66% 86 30 0.0
30 00:55 S 6 10.00 Fair CLR 82.4 69.8 66% 86 30 0.0
30 00:35 S 6 10.00 Fair CLR 82.4 68 62% 85 30 0.0
30 00:15 S 7 10.00 Fair CLR 84.2 66.2 55% 87 30 0.0
29 23:55 S 5 10.00 Fair CLR 84.2 66.2 55% 87 30 0.0
29 23:35 SE 3 10.00 Fair CLR 84.2 66.2 55% 87 30 0.0
29 23:15 SE 5 10.00 Fair CLR 84.2 66.2 55% 87 30 0.0
29 22:55 SE 3 10.00 Fair CLR 84.2 66.2 55% 87 30 0.0
29 22:35 SE 5 10.00 Fair CLR 86 64.4 49% 87 30 0.0
29 22:15 S 5 10.00 Fair CLR 86 64.4 49% 87 30 0.0
29 21:55 S 3 10.00 Fair CLR 86 62.6 46% 87 29.99 0.0
29 21:35 SE 5 10.00 Fair CLR 86 62.6 46% 87 29.98 0.0
29 21:15 S 5 10.00 Fair CLR 87.8 60.8 40% 88 29.97 0.0
29 20:55 SE 5 10.00 Fair CLR 87.8 60.8 40% 88 29.96 0.0
29 20:35 SE 3 8.00 Fair CLR 89.6 60.8 38% 90 29.96 0.0
29 20:15 SE 3 10.00 Fair CLR 91.4 60.8 36% 91 29.96 0.0
29 19:55 SE 6 10.00 Fair CLR 93.2 60.8 34% 93 29.95 0.0
29 19:35 SE 6 G 13 10.00 Fair CLR 95 60.8 32% 95 29.95 0.0
29 19:15 SE 7 10.00 Fair CLR 96.8 60.8 30% 97 29.95 0.0
29 18:55 S 8 G 15 10.00 Fair CLR 96.8 60.8 30% 97 29.95 0.0
29 18:35 S 9 10.00 A Few Clouds FEW085 98.6 60.8 29% 99 29.95 0.0
29 18:15 S 9 10.00 Fair CLR 98.6 62.6 31% 100 29.95 0.0
29 17:55 SE 10 G 16 10.00 A Few Clouds FEW085 100.4 62.6 29% 102 29.95 0.0
29 17:35 Vrbl 5 G 14 10.00 Fair CLR 100.4 62.6 29% 102 29.95 0.0
29 17:15 SE 10 10.00 Fair CLR 100.4 62.6 29% 102 29.95 0.0
29 16:55 S 10 10.00 Fair CLR 98.6 62.6 31% 100 29.96 0.0
29 16:35 S 8 G 17 10.00 A Few Clouds FEW080 98.6 62.6 31% 100 29.97 0.0
29 16:15 S 9 G 15 10.00 A Few Clouds FEW085 100.4 62.6 29% 102 29.97 0.0
29 15:55 SE 10 G 16 10.00 Fair CLR 100.4 60.8 27% 101 29.98 0.0
29 15:35 SE 13 G 20 7.00 Fair CLR 98.6 62.6 31% 100 29.99 0.0
29 15:15 SE 13 10.00 Fair CLR 100.4 62.6 29% 102 30 0.0
29 14:55 E 9 G 15 10.00 A Few Clouds FEW075 100.4 64.4 31% 104 30 0.0
29 14:35 E 8 G 18 10.00 A Few Clouds FEW075 98.6 64.4 33% 101 30.01 0.0
29 14:15 SE 9 10.00 Fair CLR 98.6 64.4 33% 101 30.03 0.0
29 13:55 SE 8 10.00 Fair CLR 98.6 64.4 33% 101 30.03 0.0
29 13:35 S 10 10.00 Fair CLR 96.8 64.4 34% 99 30.04 0.0
29 13:15 S 9 10.00 Fair CLR 96.8 64.4 34% 99 30.05 0.0
29 12:55 Vrbl 6 G 14 10.00 Fair CLR 96.8 66.2 37% 100 30.05 0.0
29 12:35 SE 10 10.00 Fair CLR 96.8 66.2 37% 100 30.06 0.0
29 12:15 Vrbl 3 G 13 10.00 Fair CLR 95 66.2 39% 98 30.07 0.0
29 11:55 Vrbl 7 10.00 Fair CLR 93.2 66.2 41% 96 30.07 0.0
29 11:35 S 8 10.00 Fair CLR 93.2 68 44% 98 30.08 0.0
29 11:15 Calm 10.00 Fair CLR 91.4 69.8 49% 97 30.08 0.0
29 10:55 Calm 10.00 Fair CLR 89.6 71.6 55% 96 30.08 0.0
29 10:35 Calm 10.00 Fair CLR 87.8 73.4 62% 96 30.08 0.0
29 10:15 Calm 10.00 Fair CLR 86 73.4 66% 93 30.08 0.0
29 09:55 Calm 10.00 Fair CLR 84.2 73.4 70% 91 30.09 0.0
29 09:35 Calm 10.00 Fair CLR 82.4 73.4 74% 88 30.09 0.0
29 09:15 Calm 10.00 Fair CLR 80.6 73.4 79% 85 30.09 0.0
29 08:55 Calm 10.00 Fair CLR 78.8 73.4 84% 82 30.08 0.0
29 08:35 SE 3 10.00 Fair CLR 77 71.6 83% 78 30.08 0.0
29 08:15 SE 5 10.00 Fair CLR 75.2 71.6 89% 75 30.08 0.0
29 07:55 Calm 10.00 Fair CLR 73.4 71.6 94% 30.08 0.0
29 07:35 Calm 10.00 Fair CLR 71.6 69.8 94% 30.07 0.0
29 07:15 Calm 10.00 Fair CLR 71.6 69.8 94% 30.06 0.0
29 06:55 SE 5 10.00 Fair CLR 71.6 69.8 94% 30.06 0.0
29 06:35 Calm 10.00 Fair CLR 71.6 69.8 94% 30.06 0.0
29 06:15 Calm 10.00 Fair CLR 71.6 69.8 94% 30.05 0.0
Date Time (cdt) Wind (mph) Vis. (mi.) Weather Sky Cond. Air Dwpt Max. Min. Relative Humidity Wind Chill (°F) Heat Index (°F) altimeter (in) sea level (mb) 1 hr 3 hr 6 hr
6 hour
Temperature (ºF) Pressure Precipitation (in)